createdAt,value
2022-12-27T00:02:12.994Z,10.50
2022-12-27T00:12:20.174Z,11.70
2022-12-27T00:22:27.656Z,10.60
2022-12-27T00:32:35.040Z,9.90
2022-12-27T00:42:42.177Z,8.10
2022-12-27T00:52:48.428Z,9.40
2022-12-27T01:13:01.524Z,7.50
2022-12-27T01:23:08.708Z,6.70
2022-12-27T01:33:15.901Z,6.20
2022-12-27T01:43:22.141Z,5.00
2022-12-27T01:53:34.850Z,3.80
2022-12-27T02:03:46.156Z,3.30
2022-12-27T02:13:53.401Z,2.10
2022-12-27T02:24:30.213Z,1.30
2022-12-27T02:34:41.739Z,0.50
2022-12-27T02:45:05.568Z,0.90
2022-12-27T02:55:16.948Z,0.80
2022-12-27T03:05:21.770Z,1.20
2022-12-27T03:15:53.299Z,1.30
2022-12-27T03:26:02.937Z,1.90
2022-12-27T03:36:25.907Z,2.00
2022-12-27T03:46:35.488Z,5.30
2022-12-27T03:56:41.790Z,3.40
2022-12-27T04:06:49.817Z,4.00
2022-12-27T04:17:14.567Z,9.90
2022-12-27T04:27:39.107Z,2.60
2022-12-27T04:37:45.068Z,2.50
2022-12-27T04:48:09.887Z,1.60
2022-12-27T04:58:16.973Z,2.20
2022-12-27T05:08:42.841Z,2.70
2022-12-27T05:18:50.116Z,2.30
2022-12-27T05:28:59.660Z,3.50
2022-12-27T05:39:07.099Z,10.90
2022-12-27T05:49:14.079Z,4.50
2022-12-27T05:59:21.528Z,2.90
2022-12-27T06:09:28.751Z,3.10
2022-12-27T06:19:36.495Z,2.50
2022-12-27T06:29:42.216Z,2.00
2022-12-27T06:39:49.594Z,2.80
2022-12-27T06:49:56.264Z,3.60
2022-12-27T07:00:03.760Z,2.60
2022-12-27T07:10:12.034Z,3.60
2022-12-27T07:20:18.410Z,2.40
2022-12-27T07:30:24.267Z,2.80
2022-12-27T07:40:31.504Z,2.10
2022-12-27T07:50:38.818Z,4.30
2022-12-27T08:00:46.111Z,3.40
2022-12-27T08:10:53.416Z,2.70
2022-12-27T08:20:59.696Z,2.50
2022-12-27T08:31:09.328Z,3.10
2022-12-27T08:41:21.027Z,3.10
2022-12-27T08:51:35.850Z,2.30
2022-12-27T09:01:47.956Z,2.30
2022-12-27T09:11:55.261Z,2.50
2022-12-27T09:22:03.737Z,4.60
2022-12-27T09:32:10.943Z,2.80
2022-12-27T09:43:01.996Z,4.00
2022-12-27T09:52:52.842Z,3.10
2022-12-27T10:03:05.232Z,2.70
2022-12-27T10:13:18.211Z,3.10
2022-12-27T10:23:25.735Z,6.70
2022-12-27T10:33:35.543Z,8.90
2022-12-27T10:43:45.660Z,5.60
2022-12-27T10:54:02.362Z,5.00
2022-12-27T11:04:19.810Z,2.60
2022-12-27T11:14:28.250Z,5.00
2022-12-27T11:24:35.467Z,4.00
2022-12-27T11:34:47.170Z,3.70
2022-12-27T11:44:54.215Z,4.00
2022-12-27T11:55:14.552Z,2.10
2022-12-27T12:05:46.845Z,2.60
2022-12-27T12:16:28.734Z,9.60
2022-12-27T12:26:38.407Z,16.10
2022-12-27T12:36:52.715Z,14.20
2022-12-27T12:46:58.515Z,15.10
2022-12-27T12:57:10.841Z,11.70
2022-12-27T13:07:26.010Z,18.40
2022-12-27T13:17:37.360Z,3.90
2022-12-27T13:27:43.215Z,5.10
2022-12-27T13:37:54.085Z,4.70
2022-12-27T13:48:13.951Z,3.90
2022-12-27T14:09:18.831Z,3.10
2022-12-27T14:19:40.482Z,4.30
2022-12-27T14:30:21.217Z,3.80
2022-12-27T14:41:00.114Z,6.40
2022-12-27T14:51:59.248Z,6.00
2022-12-27T15:02:02.036Z,6.30
2022-12-27T15:12:10.458Z,7.50
2022-12-27T15:22:19.043Z,6.70
2022-12-27T15:32:27.864Z,8.40
2022-12-27T15:42:43.324Z,11.30
2022-12-27T15:53:12.841Z,5.10
2022-12-27T16:03:31.878Z,2.70
2022-12-27T16:13:51.397Z,3.30
2022-12-27T16:24:01.171Z,6.40
2022-12-27T16:34:11.678Z,5.40
2022-12-27T16:44:26.896Z,6.60
2022-12-27T16:54:32.709Z,4.10
2022-12-27T17:04:59.307Z,4.30
2022-12-27T17:15:13.719Z,4.80
2022-12-27T17:25:22.889Z,4.80
2022-12-27T17:35:31.972Z,7.60
2022-12-27T17:45:44.045Z,7.20
2022-12-27T17:56:17.941Z,4.30
2022-12-27T18:06:25.448Z,5.50
2022-12-27T18:16:33.665Z,8.30
2022-12-27T18:26:42.507Z,14.70
2022-12-27T18:36:53.072Z,6.80
2022-12-27T18:47:01.703Z,9.00
2022-12-27T18:57:13.372Z,13.40
2022-12-27T19:07:20.892Z,13.90
2022-12-27T19:17:31.457Z,15.30
2022-12-27T19:27:38.698Z,10.20
2022-12-27T19:37:46.161Z,9.20
2022-12-27T19:47:55.771Z,15.00
2022-12-27T19:58:03.403Z,18.30
2022-12-27T20:08:16.333Z,21.30
2022-12-27T20:18:25.119Z,15.80
2022-12-27T20:28:31.181Z,9.20
2022-12-27T20:38:39.279Z,13.30
2022-12-27T20:48:48.294Z,8.50
2022-12-27T20:58:55.675Z,7.50
2022-12-27T21:09:03.259Z,10.30
2022-12-27T21:19:10.904Z,12.90
2022-12-27T21:29:19.499Z,12.20
2022-12-27T21:39:26.738Z,7.70
2022-12-27T21:49:35.173Z,9.90
2022-12-27T21:59:41.379Z,8.30
2022-12-27T22:09:48.670Z,12.30
2022-12-27T22:19:55.787Z,12.50
2022-12-27T22:30:03.715Z,11.70
2022-12-27T22:40:30.974Z,9.60
2022-12-27T22:50:39.624Z,6.30
2022-12-27T23:00:46.764Z,6.00
2022-12-27T23:10:53.947Z,7.30
2022-12-27T23:21:21.863Z,9.40
2022-12-27T23:31:29.520Z,9.70
2022-12-27T23:41:36.055Z,11.10
